Time;durP1;ratioP1;P1;durP2;ratioP2;P2;SDS_P1;SDS_P2;PMS_P1;PMS_P2;Temp;Humidity;BMP_temperature;BMP_pressure;BME280_temperature;BME280_humidity;BME280_pressure;Samples;Min_cycle;Max_cycle;Signal;HPM_P1;HPM_P2
2023/01/22 00:01:30;;;;;;;0.22;0.22;;;;;;;-0.51;100.00;100111.75;6064210;23;20022;-87
2023/01/22 00:03:55;;;;;;;0.73;0.73;;;;;;;-0.52;100.00;100118.34;6040794;23;20445;-87
2023/01/22 00:06:22;;;;;;;0.52;0.52;;;;;;;-0.46;100.00;100108.75;6064426;23;20076;-87
2023/01/22 00:08:48;;;;;;;0.55;0.50;;;;;;;-0.47;100.00;100107.16;6066227;23;20019;-87
2023/01/22 00:11:15;;;;;;;0.30;0.30;;;;;;;-0.53;100.00;100098.50;6041164;23;20015;-91
2023/01/22 00:13:40;;;;;;;0.73;0.73;;;;;;;-0.49;100.00;100099.38;6065389;23;20003;-91
2023/01/22 00:16:06;;;;;;;0.45;0.45;;;;;;;-0.49;100.00;100104.03;6016501;23;20015;-90
2023/01/22 00:18:33;;;;;;;0.93;0.93;;;;;;;-0.50;100.00;100105.16;6064297;23;20037;-91
2023/01/22 00:20:59;;;;;;;1.70;1.35;;;;;;;-0.61;100.00;100101.47;6041100;23;20101;-90
2023/01/22 00:23:25;;;;;;;1.00;1.00;;;;;;;-0.68;100.00;100090.41;6017728;23;20030;-91
2023/01/22 00:26:14;;;;;;;1.85;1.75;;;;;;;-0.54;100.00;100117.94;6064853;23;20015;-90
2023/01/22 00:28:40;;;;;;;4.28;2.22;;;;;;;-0.54;100.00;100124.19;6065585;23;20015;-87
2023/01/22 00:31:06;;;;;;;1.52;1.23;;;;;;;-0.60;100.00;100119.34;6064462;23;20109;-88
2023/01/22 00:33:32;;;;;;;2.55;1.50;;;;;;;-0.65;100.00;100111.50;6064596;23;20398;-88
2023/01/22 00:36:14;;;;;;;1.33;1.25;;;;;;;-0.57;100.00;100114.00;6041118;23;20017;-87
2023/01/22 00:38:40;;;;;;;1.58;1.48;;;;;;;-0.63;100.00;100114.63;6040446;23;20097;-86
2023/01/22 00:41:07;;;;;;;0.82;0.82;;;;;;;-0.59;100.00;100116.28;6064883;23;20021;-87
2023/01/22 00:43:37;;;;;;;0.38;0.38;;;;;;;-0.62;100.00;100116.22;6040611;23;20011;-88
2023/01/22 00:46:03;;;;;;;0.35;0.35;;;;;;;-0.61;100.00;100118.59;6040921;23;20104;-90
2023/01/22 00:48:29;;;;;;;0.47;0.47;;;;;;;-0.65;100.00;100111.50;6038489;23;20003;-88
2023/01/22 00:50:55;;;;;;;0.35;0.35;;;;;;;-0.60;100.00;100119.34;6064351;23;20066;-87
2023/01/22 00:53:21;;;;;;;1.00;1.00;;;;;;;-0.56;100.00;100131.13;6041225;23;20073;-88
2023/01/22 00:55:57;;;;;;;0.57;0.57;;;;;;;-0.59;100.00;100134.56;6040102;23;20003;-87
2023/01/22 00:58:23;;;;;;;0.80;0.80;;;;;;;-0.68;100.00;100123.09;6016025;23;20070;-87
2023/01/22 01:00:49;;;;;;;0.55;0.55;;;;;;;-0.59;100.00;100134.56;6040314;23;20050;-87
2023/01/22 01:03:31;;;;;;;0.40;0.40;;;;;;;-0.56;100.00;100142.00;6097229;23;20069;-88
2023/01/22 01:06:15;;;;;;;0.70;0.70;;;;;;;-0.69;100.00;100127.78;6052856;23;20014;-87
2023/01/22 01:08:41;;;;;;;0.75;0.75;;;;;;;-0.61;100.00;100142.31;6074538;23;20034;-90
2023/01/22 01:11:20;;;;;;;1.92;1.80;;;;;;;-0.61;100.00;100134.16;6098543;23;20006;-91
2023/01/22 01:13:46;;;;;;;0.57;0.57;;;;;;;-0.57;100.00;100154.09;6050689;23;20033;-90
2023/01/22 01:16:15;;;;;;;0.73;0.73;;;;;;;-0.61;100.00;100155.94;6073428;23;20021;-91
2023/01/22 01:18:41;;;;;;;1.17;1.10;;;;;;;-0.61;100.00;100153.22;6098019;23;20069;-91
2023/01/22 01:21:07;;;;;;;1.42;1.38;;;;;;;-0.68;100.00;100144.88;6074259;23;20377;-92
2023/01/22 01:23:34;;;;;;;0.10;0.10;;;;;;;-0.60;100.00;100158.28;6050515;23;20017;-90
2023/01/22 01:26:03;;;;;;;1.08;0.98;;;;;;;-0.61;100.00;100164.13;6073653;23;20017;-88
2023/01/22 01:28:29;;;;;;;0.10;0.10;;;;;;;-0.84;100.00;100125.09;6074402;23;20349;-87
2023/01/22 01:30:54;;;;;;;0.15;0.15;;;;;;;-0.68;100.00;100151.13;6096598;23;20017;-87
2023/01/22 01:33:20;;;;;;;1.05;1.05;;;;;;;-0.82;100.00;100118.16;6072879;23;20341;-88
2023/01/22 01:35:46;;;;;;;0.20;0.20;;;;;;;-0.70;100.00;100139.03;6096959;23;20488;-87
2023/01/22 01:38:11;;;;;;;0.70;0.70;;;;;;;-0.69;100.00;100146.84;6073627;23;20045;-87
2023/01/22 01:40:44;;;;;;;0.10;0.10;;;;;;;-0.65;100.00;100155.88;6097440;23;20583;-88
2023/01/22 01:43:16;;;;;;;1.30;1.27;;;;;;;-0.69;100.00;100148.78;6073583;23;20014;-92
2023/01/22 01:45:42;;;;;;;0.32;0.32;;;;;;;-0.69;100.00;100149.56;6097072;23;20020;-87
2023/01/22 01:48:23;;;;;;;1.55;1.45;;;;;;;-0.68;100.00;100153.06;6073422;23;20356;-87
2023/01/22 01:51:01;;;;;;;0.50;0.50;;;;;;;-0.69;100.00;100151.50;6097694;23;20076;-88
2023/01/22 01:53:27;;;;;;;1.33;1.23;;;;;;;-0.74;100.00;100138.16;6049873;23;20014;-88
2023/01/22 01:55:54;;;;;;;1.27;1.23;;;;;;;-0.93;100.00;100123.38;6097830;23;20426;-88
2023/01/22 01:58:22;;;;;;;0.55;0.52;;;;;;;-0.71;100.00;100159.22;6072988;23;20020;-88
2023/01/22 02:06:29;;;;;;;0.15;0.15;;;;;;;-0.76;100.00;100148.63;6090887;23;20153;-88
2023/01/22 02:08:56;;;;;;;3.20;1.30;;;;;;;-0.72;100.00;100144.03;6068415;23;20038;-88
2023/01/22 02:11:22;;;;;;;0.38;0.30;;;;;;;-0.81;100.00;100135.31;6044734;23;20015;-88
2023/01/22 02:13:52;;;;;;;1.75;1.35;;;;;;;-0.74;100.00;100157.22;6068068;23;20350;-88
2023/01/22 02:16:18;;;;;;;0.45;0.45;;;;;;;-0.84;100.00;100149.63;6043266;23;20022;-89
2023/01/22 02:18:44;;;;;;;1.10;0.77;;;;;;;-0.72;100.00;100155.72;6044158;23;20065;-88
2023/01/22 02:21:37;;;;;;;0.63;0.63;;;;;;;-0.74;100.00;100151.78;6068151;23;20014;-89
2023/01/22 02:24:08;;;;;;;0.85;0.85;;;;;;;-0.82;100.00;100134.50;6043431;23;20026;-88
2023/01/22 02:26:34;;;;;;;2.38;1.88;;;;;;;-0.79;100.00;100150.13;6069131;23;20089;-88
2023/01/22 02:29:00;;;;;;;2.60;2.08;;;;;;;-0.87;100.00;100137.50;6044492;23;20265;-88
2023/01/22 02:31:28;;;;;;;0.13;0.13;;;;;;;-0.83;100.00;100145.75;6066635;23;20018;-88
2023/01/22 02:33:54;;;;;;;1.38;1.27;;;;;;;-0.88;100.00;100135.13;6067693;23;20212;-88
2023/01/22 02:36:21;;;;;;;0.40;0.40;;;;;;;-0.81;100.00;100141.53;6042945;23;20450;-88
2023/01/22 02:38:47;;;;;;;3.13;1.95;;;;;;;-0.79;100.00;100143.88;6044234;23;20030;-88
2023/01/22 02:41:14;;;;;;;1.60;1.50;;;;;;;-0.76;100.00;100154.06;6067823;23;20045;-87
2023/01/22 02:43:40;;;;;;;0.82;0.82;;;;;;;-0.84;100.00;100146.88;6068475;23;20389;-87
2023/01/22 02:46:06;;;;;;;0.32;0.32;;;;;;;-0.75;100.00;100155.66;6043316;23;20017;-87
2023/01/22 02:48:31;;;;;;;0.22;0.22;;;;;;;-0.89;100.00;100136.31;6067983;23;20006;-87
2023/01/22 02:50:57;;;;;;;0.35;0.35;;;;;;;-0.89;100.00;100136.31;6093353;23;20324;-87
2023/01/22 02:53:22;;;;;;;1.02;1.02;;;;;;;-0.91;100.00;100146.75;6068251;23;20430;-87
2023/01/22 02:55:49;;;;;;;0.38;0.30;;;;;;;-0.77;100.00;100152.50;6068732;23;20018;-87
2023/01/22 02:58:16;;;;;;;0.30;0.17;;;;;;;-0.89;100.00;100136.31;6043842;23;20036;-88
2023/01/22 03:00:43;;;;;;;1.67;1.60;;;;;;;-0.80;100.00;100156.72;6067858;23;20021;-88
2023/01/22 03:03:14;;;;;;;1.27;1.17;;;;;;;-0.98;100.00;100126.41;6067171;23;20070;-88
2023/01/22 03:05:51;;;;;;;0.52;0.50;;;;;;;-0.77;100.00;100163.41;6044950;23;20018;-88
2023/01/22 03:08:18;;;;;;;0.75;0.75;;;;;;;-0.88;100.00;100140.59;6067723;23;20042;-88
2023/01/22 03:10:45;;;;;;;2.15;1.63;;;;;;;-0.77;100.00;100157.94;6068402;23;20026;-88
2023/01/22 03:21:23;;;;;;;0.22;0.22;;;;;;;-0.89;100.00;100139.03;6093025;23;20014;-86
2023/01/22 03:23:53;;;;;;;0.30;0.30;;;;;;;-0.87;100.00;100136.72;6068133;23;20494;-88
2023/01/22 03:26:20;;;;;;;2.03;1.85;;;;;;;-0.83;100.00;100149.28;6020901;23;20024;-87
2023/01/22 03:28:47;;;;;;;0.10;0.10;;;;;;;-0.80;100.00;100148.53;6068011;23;20069;-87
2023/01/22 03:31:14;;;;;;;1.20;0.63;;;;;;;-0.86;100.00;100133.66;6063013;23;20010;-87
2023/01/22 03:33:40;;;;;;;0.65;0.65;;;;;;;-0.83;100.00;100132.13;6043009;23;20019;-87
2023/01/22 03:36:09;;;;;;;0.05;0.05;;;;;;;-0.84;100.00;100136.00;6066903;23;20034;-87
2023/01/22 03:38:37;;;;;;;0.32;0.32;;;;;;;-0.80;100.00;100143.09;6044780;23;20006;-87
2023/01/22 03:41:13;;;;;;;0.95;0.95;;;;;;;-0.93;100.00;100128.06;6044110;23;20010;-86
2023/01/22 03:43:41;;;;;;;0.00;0.00;;;;;;;-0.82;100.00;100139.16;6045242;23;20077;-87
2023/01/22 03:46:18;;;;;;;0.30;0.30;;;;;;;-0.77;100.00;100141.63;6067955;23;20113;-87
2023/01/22 03:48:51;;;;;;;1.17;1.17;;;;;;;-0.79;100.00;100149.34;6069320;23;20033;-87
2023/01/22 03:51:17;;;;;;;0.20;0.20;;;;;;;-0.79;100.00;100144.69;6093536;23;20011;-86
2023/01/22 03:53:43;;;;;;;1.17;1.10;;;;;;;-0.88;100.00;100129.69;6067878;23;20006;-87
2023/01/22 03:56:12;;;;;;;0.77;0.73;;;;;;;-0.85;100.00;100139.88;6068768;23;20053;-87
2023/01/22 03:58:38;;;;;;;0.90;0.80;;;;;;;-0.93;100.00;100126.09;6067920;23;20342;-86
2023/01/22 04:01:07;;;;;;;0.17;0.17;;;;;;;-0.82;100.00;100144.63;6044560;23;20010;-87
2023/01/22 04:03:33;;;;;;;0.22;0.22;;;;;;;-0.87;100.00;100129.34;6046388;23;20462;-86
2023/01/22 04:05:59;;;;;;;1.15;1.08;;;;;;;-1.10;100.00;100099.31;6022051;23;20034;-87
2023/01/22 04:08:27;;;;;;;0.30;0.30;;;;;;;-0.82;100.00;100139.16;6069592;23;20018;-87
2023/01/22 04:10:54;;;;;;;0.52;0.52;;;;;;;-0.83;100.00;100137.59;6069457;23;20018;-87
2023/01/22 04:13:20;;;;;;;0.10;0.10;;;;;;;-0.97;100.00;100127.19;6046243;23;20006;-89
2023/01/22 04:15:49;;;;;;;1.10;1.08;;;;;;;-0.91;100.00;100131.22;6046661;23;20015;-89
2023/01/22 04:18:37;;;;;;;1.08;1.08;;;;;;;-0.95;100.00;100125.69;5984051;23;20010;-88
2023/01/22 04:21:35;;;;;;;0.75;0.75;;;;;;;-0.86;100.00;100132.84;6035883;23;20078;-87
2023/01/22 04:24:03;;;;;;;0.98;0.98;;;;;;;-0.87;100.00;100123.91;6069752;23;20421;-88
2023/01/22 04:26:30;;;;;;;0.10;0.10;;;;;;;-0.87;100.00;100131.28;6095271;23;20097;-88
2023/01/22 04:28:58;;;;;;;3.30;1.50;;;;;;;-0.87;100.00;100123.09;6070163;23;20010;-88
2023/01/22 04:31:24;;;;;;;0.20;0.20;;;;;;;-0.84;100.00;100141.44;6093832;23;20002;-88
2023/01/22 04:34:07;;;;;;;1.10;1.10;;;;;;;-0.89;100.00;100139.81;6048771;23;20011;-88
2023/01/22 04:36:40;;;;;;;0.20;0.20;;;;;;;-0.90;100.00;100132.00;6069393;23;20017;-88
2023/01/22 04:39:05;;;;;;;0.30;0.30;;;;;;;-0.93;100.00;100131.56;6069451;23;20018;-88
2023/01/22 04:41:32;;;;;;;0.08;0.08;;;;;;;-0.90;100.00;100138.25;6042846;23;20332;-88
2023/01/22 04:43:57;;;;;;;1.65;1.45;;;;;;;-0.87;100.00;100137.50;6045092;23;20056;-88
2023/01/22 04:46:24;;;;;;;1.08;1.02;;;;;;;-0.87;100.00;100139.44;6045395;23;20038;-88
2023/01/22 04:48:50;;;;;;;0.75;0.65;;;;;;;-0.87;100.00;100142.16;6046128;23;20022;-88
2023/01/22 04:51:17;;;;;;;0.28;0.28;;;;;;;-0.83;100.00;100143.81;6021012;23;20081;-88
2023/01/22 04:53:43;;;;;;;1.13;1.10;;;;;;;-1.06;100.00;100108.34;6046357;23;20070;-87
2023/01/22 04:56:09;;;;;;;0.35;0.35;;;;;;;-0.85;100.00;100139.88;6044889;23;20014;-88
2023/01/22 04:58:35;;;;;;;0.10;0.10;;;;;;;-0.87;100.00;100142.97;6069291;23;20020;-88
2023/01/22 05:01:00;;;;;;;2.55;1.13;;;;;;;-0.85;100.00;100145.34;6043917;23;20011;-88
2023/01/22 05:03:27;;;;;;;1.55;1.17;;;;;;;-0.93;100.00;100123.38;6068551;23;20510;-88
2023/01/22 05:05:53;;;;;;;0.40;0.40;;;;;;;-0.87;100.00;100139.44;6068391;23;20018;-88
2023/01/22 05:08:18;;;;;;;1.05;1.05;;;;;;;-0.89;100.00;100130.84;6044900;23;20329;-88
2023/01/22 05:10:44;;;;;;;1.45;1.35;;;;;;;-0.89;100.00;100131.66;6067954;23;20435;-87
2023/01/22 05:13:16;;;;;;;2.42;0.82;;;;;;;-0.82;100.00;100150.06;6069012;23;20069;-88
2023/01/22 05:15:42;;;;;;;1.02;1.02;;;;;;;-0.88;100.00;100137.84;6067486;23;20387;-88
2023/01/22 05:18:10;;;;;;;1.50;1.40;;;;;;;-0.80;100.00;100142.31;6067939;23;20048;-87
2023/01/22 05:20:43;;;;;;;0.55;0.55;;;;;;;-0.81;100.00;100151.66;6067211;23;20014;-87
2023/01/22 05:23:10;;;;;;;0.30;0.30;;;;;;;-0.77;100.00;100147.06;6044516;23;20014;-87
2023/01/22 05:25:35;;;;;;;1.40;1.30;;;;;;;-0.91;100.00;100133.94;6068377;23;20007;-87
2023/01/22 05:28:02;;;;;;;0.63;0.63;;;;;;;-0.80;100.00;100153.19;6043909;23;20075;-87
2023/01/22 05:30:38;;;;;;;2.55;2.03;;;;;;;-0.81;100.00;100147.00;6066798;23;20006;-87
2023/01/22 05:33:31;;;;;;;0.35;0.35;;;;;;;-0.80;100.00;100153.19;6049648;23;20113;-87
2023/01/22 05:35:57;;;;;;;1.88;1.65;;;;;;;-0.78;100.00;100161.81;6067069;23;20443;-87
2023/01/22 05:38:23;;;;;;;1.65;1.02;;;;;;;-0.89;100.00;100149.91;6092989;23;20010;-87
2023/01/22 05:40:49;;;;;;;0.35;0.35;;;;;;;-0.88;100.00;100151.47;6066145;23;20050;-88
2023/01/22 05:43:15;;;;;;;0.50;0.50;;;;;;;-0.76;100.00;100159.50;6067313;23;20086;-87
2023/01/22 05:45:45;;;;;;;3.03;1.02;;;;;;;-0.77;100.00;100168.84;6066417;23;20392;-87
2023/01/22 05:48:38;;;;;;;1.75;1.35;;;;;;;-0.75;100.00;100167.34;6063977;23;20010;-87
2023/01/22 05:51:12;;;;;;;1.00;1.00;;;;;;;-0.75;100.00;100172.00;6064151;23;20067;-87
2023/01/22 05:53:38;;;;;;;1.05;1.05;;;;;;;-0.72;100.00;100171.25;6042237;23;20494;-87
2023/01/22 05:56:05;;;;;;;0.10;0.10;;;;;;;-0.77;100.00;100171.56;6042450;23;20166;-87
2023/01/22 05:58:34;;;;;;;0.30;0.30;;;;;;;-0.71;100.00;100186.47;6065702;23;20101;-87
2023/01/22 06:01:00;;;;;;;1.17;0.82;;;;;;;-0.77;100.00;100177.03;6040202;23;20396;-87
2023/01/22 06:03:30;;;;;;;1.48;1.40;;;;;;;-0.72;100.00;100179.44;6043300;23;20261;-87
2023/01/22 06:06:00;;;;;;;0.57;0.57;;;;;;;-0.80;100.00;100177.72;6067184;23;20014;-87
2023/01/22 06:08:26;;;;;;;0.10;0.10;;;;;;;-0.73;100.00;100191.50;6066727;23;20398;-87
2023/01/22 06:11:04;;;;;;;0.32;0.32;;;;;;;-0.76;100.00;100187.53;6043547;23;20351;-87
2023/01/22 06:13:30;;;;;;;0.80;0.80;;;;;;;-0.76;100.00;100175.84;6092871;23;20010;-88
2023/01/22 06:16:00;;;;;;;0.50;0.50;;;;;;;-0.70;100.00;100201.66;6039734;23;20020;-87
2023/01/22 06:18:55;;;;;;;0.47;0.47;;;;;;;-0.72;100.00;100195.78;6079304;23;20085;-87
2023/01/22 06:21:23;;;;;;;1.85;1.75;;;;;;;-0.70;100.00;100209.84;6042813;23;20319;-87
2023/01/22 06:23:49;;;;;;;0.08;0.08;;;;;;;-0.70;100.00;100224.25;6043198;23;20387;-87
2023/01/22 06:26:16;;;;;;;0.30;0.30;;;;;;;-0.76;100.00;100222.16;6066386;23;20073;-87
2023/01/22 06:28:41;;;;;;;4.47;1.75;;;;;;;-0.75;100.00;100213.63;6066605;23;20462;-87
2023/01/22 06:31:07;;;;;;;0.90;0.90;;;;;;;-0.83;100.00;100205.66;6042807;23;20018;-87
2023/01/22 06:33:35;;;;;;;0.50;0.50;;;;;;;-0.74;100.00;100201.59;6067579;23;20022;-87
2023/01/22 06:36:02;;;;;;;1.05;0.80;;;;;;;-0.75;100.00;100216.34;6042382;23;20018;-87
2023/01/22 06:38:28;;;;;;;0.13;0.13;;;;;;;-0.68;100.00;100230.13;6066234;23;20306;-87
2023/01/22 06:40:58;;;;;;;0.63;0.63;;;;;;;-0.68;100.00;100226.59;6020063;23;20015;-87
2023/01/22 06:43:25;;;;;;;2.50;2.30;;;;;;;-0.77;100.00;100226.84;6042288;23;20081;-87
2023/01/22 06:45:51;;;;;;;0.32;0.32;;;;;;;-0.67;100.00;100244.53;6042113;23;20088;-87
2023/01/22 06:48:20;;;;;;;1.60;1.50;;;;;;;-0.68;100.00;100248.41;6042792;23;20018;-87
2023/01/22 06:50:45;;;;;;;0.73;0.73;;;;;;;-0.70;100.00;100247.97;6041957;23;20014;-87
2023/01/22 06:53:11;;;;;;;0.25;0.25;;;;;;;-0.81;100.00;100227.91;6042852;23;20026;-87
2023/01/22 06:55:37;;;;;;;4.65;2.75;;;;;;;-0.67;100.00;100252.72;6041874;23;20481;-87
2023/01/22 06:58:03;;;;;;;0.45;0.45;;;;;;;-0.91;100.00;100233.88;6066551;23;20400;-87
2023/01/22 07:00:28;;;;;;;0.40;0.40;;;;;;;-0.67;100.00;100272.56;6065140;23;20025;-87
2023/01/22 07:02:54;;;;;;;1.02;0.82;;;;;;;-0.78;100.00;100247.03;6041912;23;20081;-87
2023/01/22 07:05:20;;;;;;;0.50;0.50;;;;;;;-0.74;100.00;100249.84;6091055;23;20014;-87
2023/01/22 07:07:46;;;;;;;1.15;1.05;;;;;;;-0.65;100.00;100264.06;6091932;23;20409;-86
2023/01/22 07:10:12;;;;;;;0.80;0.80;;;;;;;-0.64;100.00;100273.78;6066597;23;20331;-87
2023/01/22 07:12:38;;;;;;;0.47;0.47;;;;;;;-0.93;100.00;100218.69;6042564;23;20018;-87
2023/01/22 07:15:05;;;;;;;0.22;0.22;;;;;;;-0.66;100.00;100262.47;6091068;23;20006;-87
2023/01/22 07:17:31;;;;;;;0.60;0.60;;;;;;;-0.74;100.00;100256.06;6066585;23;20396;-87
2023/01/22 07:19:57;;;;;;;0.45;0.45;;;;;;;-0.59;100.00;100282.47;6091535;23;20034;-88
2023/01/22 07:22:22;;;;;;;0.22;0.22;;;;;;;-0.60;100.00;100280.91;6066965;23;20025;-87
2023/01/22 07:24:48;;;;;;;1.45;1.35;;;;;;;-0.61;100.00;100286.72;6065884;23;20006;-87
2023/01/22 07:27:14;;;;;;;2.13;1.13;;;;;;;-0.66;100.00;100281.53;6042199;23;20105;-87
2023/01/22 07:29:39;;;;;;;0.65;0.65;;;;;;;-0.67;100.00;100282.69;6090322;23;20014;-88
2023/01/22 07:32:05;;;;;;;2.45;1.75;;;;;;;-0.56;100.00;100289.13;6091991;23;20090;-87
2023/01/22 07:34:30;;;;;;;0.10;0.10;;;;;;;-0.56;100.00;100289.13;6042821;23;20481;-87
2023/01/22 07:36:56;;;;;;;0.17;0.17;;;;;;;-0.61;100.00;100286.72;6068053;23;20443;-87
2023/01/22 07:39:22;;;;;;;0.25;0.25;;;;;;;-0.56;100.00;100311.72;6044104;23;20092;-87
2023/01/22 07:41:47;;;;;;;0.50;0.50;;;;;;;-0.56;100.00;100316.38;6068988;23;20014;-86
2023/01/22 07:44:15;;;;;;;1.48;1.35;;;;;;;-0.53;100.00;100307.53;6044955;23;20010;-87
2023/01/22 07:46:40;;;;;;;0.55;0.55;;;;;;;-0.59;100.00;100307.00;6095053;23;20019;-87
2023/01/22 07:49:06;;;;;;;0.85;0.52;;;;;;;-0.55;100.00;100321.50;6068007;23;20073;-88
2023/01/22 07:51:32;;;;;;;3.45;0.90;;;;;;;-0.52;100.00;100319.97;6068478;23;20259;-87
2023/01/22 07:53:57;;;;;;;1.80;1.65;;;;;;;-0.58;100.00;100310.53;6070275;23;20092;-87
2023/01/22 07:56:23;;;;;;;1.00;0.90;;;;;;;-0.61;100.00;100308.50;6068788;23;20010;-87
2023/01/22 07:58:48;;;;;;;2.45;1.35;;;;;;;-0.54;100.00;100330.47;6094226;23;20030;-87
2023/01/22 08:01:14;;;;;;;0.40;0.40;;;;;;;-0.54;100.00;100330.47;6043038;23;20090;-87
2023/01/22 08:03:40;;;;;;;1.48;1.38;;;;;;;-0.65;100.00;100318.53;6068637;23;20041;-87
2023/01/22 08:06:14;;;;;;;2.00;1.55;;;;;;;-0.50;100.00;100332.13;6092893;23;20034;-87
2023/01/22 08:08:41;;;;;;;0.30;0.30;;;;;;;-0.50;100.00;100337.56;6068618;23;20105;-87
2023/01/22 08:11:07;;;;;;;0.70;0.50;;;;;;;-0.54;100.00;100335.91;6092521;23;20435;-88
2023/01/22 08:13:32;;;;;;;1.38;0.90;;;;;;;-0.56;100.00;100321.84;6093052;23;20017;-87
2023/01/22 08:15:58;;;;;;;1.10;1.10;;;;;;;-0.60;100.00;100315.53;6044033;23;20024;-87
2023/01/22 08:18:23;;;;;;;0.25;0.25;;;;;;;-0.61;100.00;100316.69;6068314;23;20022;-87
2023/01/22 08:20:49;;;;;;;1.15;1.13;;;;;;;-0.48;100.00;100335.28;6092338;23;20025;-88
2023/01/22 08:23:14;;;;;;;0.47;0.47;;;;;;;-0.51;100.00;100333.25;6067237;23;20101;-88
2023/01/22 08:25:40;;;;;;;2.63;1.95;;;;;;;-0.43;100.00;100347.03;6093774;23;20061;-87
2023/01/22 08:28:06;;;;;;;1.75;1.65;;;;;;;-0.43;100.00;100339.66;6041599;23;20102;-88
2023/01/22 08:30:33;;;;;;;0.68;0.68;;;;;;;-0.50;100.00;100326.69;6065930;23;20102;-88
2023/01/22 08:32:58;;;;;;;0.30;0.30;;;;;;;-0.40;100.00;100333.47;6067330;23;20376;-88
2023/01/22 08:35:24;;;;;;;2.65;1.55;;;;;;;-0.51;100.00;100324.28;6041813;23;20010;-88
2023/01/22 08:37:50;;;;;;;2.15;1.80;;;;;;;-0.47;100.00;100331.41;6020153;23;20019;-88
2023/01/22 08:40:16;;;;;;;1.48;1.27;;;;;;;-0.40;100.00;100352.56;6041977;23;20013;-88
2023/01/22 08:42:41;;;;;;;1.25;1.17;;;;;;;-0.37;100.00;100351.09;6019953;23;20021;-88
2023/01/22 08:45:07;;;;;;;4.63;2.10;;;;;;;-0.35;100.00;100357.75;6065505;23;20011;-88
2023/01/22 08:47:33;;;;;;;1.38;0.43;;;;;;;-0.35;100.00;100355.03;6043548;23;20018;-88
2023/01/22 08:50:01;;;;;;;0.32;0.32;;;;;;;-0.38;100.00;100349.50;6042547;23;20309;-88
2023/01/22 08:52:27;;;;;;;0.65;0.65;;;;;;;-0.39;100.00;100353.34;6043489;23;20025;-88
2023/01/22 08:54:53;;;;;;;0.40;0.40;;;;;;;-0.44;100.00;100343.53;6091372;23;20022;-87
2023/01/22 08:57:18;;;;;;;2.20;1.10;;;;;;;-0.35;100.00;100360.47;6091666;23;20409;-88
2023/01/22 08:59:44;;;;;;;0.75;0.75;;;;;;;-0.27;100.00;100364.13;6064241;23;20025;-87
2023/01/22 09:02:12;;;;;;;1.08;1.08;;;;;;;-0.35;100.00;100360.47;6041194;23;20046;-87
2023/01/22 09:04:38;;;;;;;1.00;0.95;;;;;;;-0.30;100.00;100379.28;6065798;23;20487;-88
2023/01/22 09:07:04;;;;;;;0.75;0.75;;;;;;;-0.38;100.00;100365.84;6040454;23;20024;-87
2023/01/22 09:09:30;;;;;;;2.15;1.95;;;;;;;-0.32;100.00;100373.38;6066797;23;20026;-88
2023/01/22 09:11:55;;;;;;;0.95;0.93;;;;;;;-0.23;100.00;100365.81;6064696;23;20446;-88
2023/01/22 09:14:21;;;;;;;0.25;0.25;;;;;;;-0.22;100.00;100388.41;6041843;23;20022;-87
2023/01/22 09:16:46;;;;;;;0.30;0.30;;;;;;;-0.22;100.00;100400.09;6066188;23;20014;-88
2023/01/22 09:19:12;;;;;;;2.03;1.92;;;;;;;-0.27;100.00;100383.22;6064908;23;20017;-89
2023/01/22 09:21:38;;;;;;;0.28;0.28;;;;;;;-0.31;100.00;100388.59;6040753;23;20572;-89
2023/01/22 09:24:05;;;;;;;0.20;0.20;;;;;;;-0.28;100.00;100396.06;6065783;23;20022;-88
2023/01/22 09:26:33;;;;;;;1.10;1.08;;;;;;;-0.27;100.00;100410.47;6042252;23;20014;-88
2023/01/22 09:28:59;;;;;;;0.82;0.82;;;;;;;-0.23;100.00;100423.06;6041285;23;20085;-88
2023/01/22 09:31:26;;;;;;;0.80;0.80;;;;;;;-0.25;100.00;100430.81;6039911;23;20379;-88
2023/01/22 09:33:53;;;;;;;1.88;1.67;;;;;;;-0.36;100.00;100407.94;6064077;23;20022;-88
2023/01/22 09:36:19;;;;;;;0.57;0.57;;;;;;;-0.20;100.00;100427.78;6040022;23;20026;-88
2023/01/22 09:38:44;;;;;;;2.95;2.72;;;;;;;-0.18;100.00;100424.72;6017793;23;20022;-88
2023/01/22 09:41:29;;;;;;;1.30;0.98;;;;;;;-0.18;100.00;100436.41;6040919;23;20098;-87
2023/01/22 09:44:05;;;;;;;1.35;1.25;;;;;;;-0.27;100.00;100432.28;6039651;23;20458;-88
2023/01/22 09:46:38;;;;;;;0.10;0.10;;;;;;;-0.30;100.00;100428.34;6019735;23;20049;-88
2023/01/22 09:49:15;;;;;;;0.82;0.82;;;;;;;-0.28;100.00;100431.50;6042757;23;20050;-88
2023/01/22 09:51:43;;;;;;;0.55;0.55;;;;;;;-0.30;100.00;100428.34;6067611;23;20057;-88
2023/01/22 09:54:11;;;;;;;1.25;1.17;;;;;;;-0.45;100.00;100410.09;6020459;23;20015;-88
2023/01/22 09:56:44;;;;;;;0.30;0.30;;;;;;;-0.31;100.00;100425.97;6039251;23;20455;-88
2023/01/22 09:59:38;;;;;;;5.18;0.93;;;;;;;-0.29;100.00;100423.69;6040664;23;20494;-89
2023/01/22 10:02:38;;;;;;;2.67;1.52;;;;;;;-0.21;100.00;100448.03;6065812;23;20018;-88
2023/01/22 10:05:23;;;;;;;0.88;0.88;;;;;;;-0.16;100.00;100449.72;6050106;23;20053;-88
2023/01/22 10:07:57;;;;;;;1.17;1.08;;;;;;;-0.22;100.00;100449.19;6041876;23;20022;-89
2023/01/22 10:10:26;;;;;;;3.20;2.03;;;;;;;-0.17;100.00;100454.38;6065065;23;20034;-89
2023/01/22 10:12:59;;;;;;;0.60;0.60;;;;;;;-0.22;100.00;100451.91;6041683;23;20494;-88
2023/01/22 10:15:25;;;;;;;0.63;0.63;;;;;;;-0.19;100.00;100453.91;6040419;23;20490;-88
2023/01/22 10:17:53;;;;;;;0.80;0.80;;;;;;;-0.41;100.00;100410.97;6066064;23;20494;-89
2023/01/22 10:20:19;;;;;;;1.05;1.00;;;;;;;-0.18;100.00;100454.72;6041911;23;20025;-89
2023/01/22 10:22:47;;;;;;;0.75;0.75;;;;;;;-0.20;100.00;100444.16;6019291;23;20089;-88
2023/01/22 10:25:15;;;;;;;1.17;1.08;;;;;;;-0.19;100.00;100459.38;6041912;23;20015;-88
2023/01/22 10:27:41;;;;;;;1.05;0.98;;;;;;;-0.16;100.00;100455.16;6064167;23;20057;-88
2023/01/22 10:30:07;;;;;;;0.17;0.17;;;;;;;-0.14;100.00;100453.66;6064363;23;20099;-87
2023/01/22 10:32:32;;;;;;;2.28;1.27;;;;;;;-0.15;100.00;100418.53;6066233;23;20400;-87
2023/01/22 10:35:05;;;;;;;1.85;1.48;;;;;;;-0.15;100.00;100432.97;6017816;23;20013;-88
2023/01/22 10:37:44;;;;;;;0.35;0.35;;;;;;;-0.24;100.00;100426.16;6042060;23;20018;-88
2023/01/22 10:40:20;;;;;;;0.05;0.05;;;;;;;-0.14;100.00;100442.75;6092030;23;20025;-88
2023/01/22 10:42:58;;;;;;;0.00;0.00;;;;;;;-0.14;100.00;100447.41;6067530;23;20074;-88
2023/01/22 10:45:23;;;;;;;0.70;0.70;;;;;;;-0.27;100.00;100427.63;6042085;23;20109;-87
2023/01/22 10:47:49;;;;;;;1.10;0.98;;;;;;;-0.06;100.00;100458.13;6066407;23;20034;-87
2023/01/22 10:50:15;;;;;;;0.20;0.20;;;;;;;-0.10;100.00;100459.97;6019029;23;20018;-88
2023/01/22 10:52:49;;;;;;;1.27;1.17;;;;;;;-0.17;100.00;100450.84;6065195;23;20048;-88
2023/01/22 10:55:21;;;;;;;1.00;1.00;;;;;;;-0.12;100.00;100453.31;6040040;23;20605;-87
2023/01/22 10:57:51;;;;;;;1.95;1.85;;;;;;;-0.07;100.00;100474.81;6064101;23;20018;-87
2023/01/22 11:00:17;;;;;;;0.75;0.75;;;;;;;-0.08;100.00;100473.25;6088775;23;20041;-88
2023/01/22 11:02:44;;;;;;;1.13;1.02;;;;;;;-0.11;100.00;100463.84;6064822;23;20010;-88
2023/01/22 11:05:20;;;;;;;0.68;0.68;;;;;;;-0.09;100.00;100467.00;6064828;23;20022;-87
2023/01/22 11:07:49;;;;;;;1.95;1.83;;;;;;;-0.04;100.00;100461.25;6065523;23;20053;-87
2023/01/22 11:10:22;;;;;;;1.27;1.17;;;;;;;-0.04;100.00;100483.06;6064338;23;20030;-87
2023/01/22 11:13:03;;;;;;;1.55;1.05;;;;;;;-0.07;100.00;100477.53;6041597;23;20022;-87
2023/01/22 11:16:03;;;;;;;0.93;0.93;;;;;;;-0.10;100.00;100476.34;6064163;23;20018;-87
2023/01/22 11:18:35;;;;;;;0.10;0.10;;;;;;;-0.13;100.00;100468.88;6065314;23;20021;-87
2023/01/22 11:21:04;;;;;;;0.20;0.20;;;;;;;-0.10;100.00;100467.34;6062734;23;20010;-88
2023/01/22 11:23:36;;;;;;;0.88;0.65;;;;;;;-0.06;100.00;100487.31;6064080;23;20014;-87
2023/01/22 11:26:05;;;;;;;2.00;1.40;;;;;;;-0.07;100.00;100485.72;6088098;23;20419;-88
2023/01/22 11:28:50;;;;;;;1.75;1.40;;;;;;;-0.08;100.00;100474.03;6063910;23;20098;-89
2023/01/22 11:31:44;;;;;;;3.28;2.15;;;;;;;-0.15;100.00;100468.41;6062474;23;20022;-88
2023/01/22 11:34:16;;;;;;;1.20;1.17;;;;;;;-0.05;100.00;100484.25;6039178;23;20026;-88
2023/01/22 11:36:52;;;;;;;0.80;0.80;;;;;;;-0.12;100.00;100469.66;6063399;23;20093;-88
2023/01/22 11:39:48;;;;;;;1.83;0.95;;;;;;;-0.10;100.00;100468.16;6062721;23;20065;-89